Time;durP1;ratioP1;P1;durP2;ratioP2;P2;SDS_P1;SDS_P2;PMS_P1;PMS_P2;Temp;Humidity;BMP_temperature;BMP_pressure;BME280_temperature;BME280_humidity;BME280_pressure;Samples;Min_cycle;Max_cycle;Signal;HPM_P1;HPM_P2
2023/07/28 00:03:43;;;;;;;;;;;;;;;18.53;100.00;100277.84;21087015;27;19931;-68
2023/07/28 00:14:05;;;;;;;;;;;;;;;18.54;100.00;100283.94;21096821;27;20358;-68
2023/07/28 00:24:26;;;;;;;;;;;;;;;18.63;100.00;100294.59;21079493;27;20408;-68
2023/07/28 00:34:48;;;;;;;;;;;;;;;18.62;100.00;100303.44;21086677;27;20041;-68
2023/07/28 00:45:09;;;;;;;;;;;;;;;18.61;100.00;100288.63;21090098;28;19924;-68
2023/07/28 00:55:31;;;;;;;;;;;;;;;18.56;100.00;100298.63;21085558;28;20023;-68
2023/07/28 01:05:55;;;;;;;;;;;;;;;18.56;100.00;100288.13;21091239;27;19931;-67
2023/07/28 01:16:17;;;;;;;;;;;;;;;18.56;100.00;100282.88;21083647;28;19931;-67
2023/07/28 01:26:39;;;;;;;;;;;;;;;18.56;100.00;100277.66;21088587;28;19923;-68
2023/07/28 01:37:01;;;;;;;;;;;;;;;18.58;100.00;100282.78;21094820;28;19931;-68
2023/07/28 01:47:22;;;;;;;;;;;;;;;18.58;100.00;100294.09;21097552;27;19954;-67
2023/07/28 01:58:00;;;;;;;;;;;;;;;18.57;100.00;100294.22;21101350;27;19992;-67
2023/07/28 02:08:21;;;;;;;;;;;;;;;18.48;100.00;100305.31;21124031;27;19924;-67
2023/07/28 02:18:45;;;;;;;;;;;;;;;18.47;100.00;100288.78;21087632;27;20668;-67
2023/07/28 02:29:06;;;;;;;;;;;;;;;18.47;100.00;100303.66;21108546;27;20643;-68
2023/07/28 02:39:28;;;;;;;;;;;;;;;18.44;100.00;100304.69;21089462;27;19928;-68
2023/07/28 02:49:50;;;;;;;;;;;;;;;18.49;100.00;100307.84;21107503;27;20155;-68
2023/07/28 03:00:11;;;;;;;;;;;;;;;18.53;100.00;100313.72;21095240;27;19930;-68
2023/07/28 03:10:33;;;;;;;;;;;;;;;18.58;100.00;100322.94;21127237;27;19924;-68
2023/07/28 03:20:54;;;;;;;;;;;;;;;18.58;100.00;100327.31;21092183;27;20352;-67
2023/07/28 03:31:16;;;;;;;;;;;;;;;18.61;100.00;100343.66;21089985;27;19928;-68
2023/07/28 03:41:37;;;;;;;;;;;;;;;18.62;100.00;100329.63;21095672;27;19924;-68
2023/07/28 03:51:59;;;;;;;;;;;;;;;18.62;100.00;100334.88;21081379;27;19924;-68
2023/07/28 04:02:20;;;;;;;;;;;;;;;18.63;100.00;100347.03;21100730;27;20288;-68
2023/07/28 04:12:42;;;;;;;;;;;;;;;18.66;100.00;100353.84;21093903;27;19931;-68
2023/07/28 04:23:03;;;;;;;;;;;;;;;18.68;100.00;100358.00;21095546;27;19924;-68
2023/07/28 04:33:25;;;;;;;;;;;;;;;18.67;100.00;100368.63;21091233;27;19977;-68
2023/07/28 04:43:46;;;;;;;;;;;;;;;18.68;100.00;100371.13;21101681;28;19938;-68
2023/07/28 04:54:07;;;;;;;;;;;;;;;18.73;100.00;100373.44;21088318;28;19932;-68
2023/07/28 05:04:29;;;;;;;;;;;;;;;18.75;100.00;100377.59;21090423;28;19924;-68
2023/07/28 05:14:51;;;;;;;;;;;;;;;18.78;100.00;100385.28;21088851;27;20573;-70
2023/07/28 05:25:12;;;;;;;;;;;;;;;18.78;100.00;100393.13;21106987;27;19928;-70
2023/07/28 05:35:34;;;;;;;;;;;;;;;18.83;100.00;100391.00;21104911;27;19943;-67
2023/07/28 05:45:56;;;;;;;;;;;;;;;18.89;100.00;100397.59;21102204;27;20273;-68
2023/07/28 05:56:18;;;;;;;;;;;;;;;18.89;100.00;100406.31;21123834;27;19985;-68
2023/07/28 06:06:39;;;;;;;;;;;;;;;18.91;100.00;100417.53;21104305;27;19924;-67
2023/07/28 06:17:01;;;;;;;;;;;;;;;18.97;100.00;100414.47;21086483;27;20441;-67
2023/07/28 06:27:22;;;;;;;;;;;;;;;18.99;100.00;100423.06;21110249;27;19935;-67
2023/07/28 06:37:44;;;;;;;;;;;;;;;19.03;100.00;100435.03;21098957;27;19950;-67
2023/07/28 06:48:05;;;;;;;;;;;;;;;19.05;100.00;100454.13;21100220;27;19930;-67
2023/07/28 06:58:27;;;;;;;;;;;;;;;19.08;100.00;100461.75;21093680;27;19928;-67
2023/07/28 07:08:48;;;;;;;;;;;;;;;19.14;100.00;100480.66;21102290;27;19938;-67
2023/07/28 07:19:10;;;;;;;;;;;;;;;19.20;100.00;100493.31;21137568;27;20052;-67
2023/07/28 07:29:31;;;;;;;;;;;;;;;19.32;100.00;100492.50;21150934;27;19924;-67
2023/07/28 07:39:53;;;;;;;;;;;;;;;19.34;100.00;100506.34;21101410;27;20015;-67
2023/07/28 07:50:14;;;;;;;;;;;;;;;19.45;100.00;100506.41;21098331;27;19927;-67
2023/07/28 08:00:36;;;;;;;;;;;;;;;19.41;100.00;100518.91;21111698;27;20124;-67
2023/07/28 08:10:58;;;;;;;;;;;;;;;19.41;100.00;100536.44;21113988;27;20395;-68
2023/07/28 08:21:19;;;;;;;;;;;;;;;19.49;100.00;100547.22;21093911;27;19934;-68
2023/07/28 08:31:41;;;;;;;;;;;;;;;19.61;100.00;100551.63;21082850;27;19923;-68
2023/07/28 08:42:04;;;;;;;;;;;;;;;19.82;100.00;100561.41;21107251;28;19928;-69
2023/07/28 08:52:25;;;;;;;;;;;;;;;19.93;100.00;100571.13;21114512;27;20323;-68
2023/07/28 09:02:48;;;;;;;;;;;;;;;19.95;100.00;100583.22;21096817;27;19934;-68
2023/07/28 09:13:13;;;;;;;;;;;;;;;20.06;100.00;100590.31;21105986;27;19927;-68
2023/07/28 09:23:38;;;;;;;;;;;;;;;20.55;100.00;100598.91;21129870;27;19928;-67
2023/07/28 09:33:59;;;;;;;;;;;;;;;20.78;100.00;100584.88;21100418;27;20436;-67
2023/07/28 09:44:21;;;;;;;;;;;;;;;20.81;100.00;100600.41;21102003;27;19927;-67
2023/07/28 09:54:45;;;;;;;;;;;;;;;20.74;100.00;100609.72;21193863;27;19932;-67
2023/07/28 10:05:07;;;;;;;;;;;;;;;20.71;100.00;100620.47;21103153;27;19928;-67
2023/07/28 10:15:30;;;;;;;;;;;;;;;20.49;100.00;100627.47;21099291;27;20501;-67
2023/07/28 10:26:02;;;;;;;;;;;;;;;20.60;100.00;100633.56;21101425;27;20375;-67
2023/07/28 10:36:25;;;;;;;;;;;;;;;20.99;99.13;100646.41;21094467;27;19924;-67
2023/07/28 10:46:46;;;;;;;;;;;;;;;21.57;95.52;100641.91;21098164;27;20010;-66
2023/07/28 10:57:08;;;;;;;;;;;;;;;21.66;94.84;100638.56;21103064;27;20018;-66
2023/07/28 11:07:29;;;;;;;;;;;;;;;21.67;94.00;100648.13;21095552;27;20382;-65
2023/07/28 11:17:52;;;;;;;;;;;;;;;21.66;95.57;100649.94;21089282;27;19924;-65
2023/07/28 11:28:14;;;;;;;;;;;;;;;21.66;94.42;100657.84;21097683;27;19924;-65
2023/07/28 11:38:37;;;;;;;;;;;;;;;21.72;94.64;100659.13;21100484;27;19924;-65
2023/07/28 11:49:23;;;;;;;;;;;;;;;21.75;95.95;100662.38;21087449;27;19928;-65
2023/07/28 11:59:45;;;;;;;;;;;;;;;21.97;94.12;100678.19;21107863;27;20014;-65
2023/07/28 12:10:09;;;;;;;;;;;;;;;22.33;92.13;100674.41;21095146;27;19959;-65
2023/07/28 12:20:35;;;;;;;;;;;;;;;22.78;89.60;100669.84;21109059;27;20022;-64
2023/07/28 12:31:01;;;;;;;;;;;;;;;22.85;89.50;100687.63;21093428;28;20299;-65
2023/07/28 12:41:22;;;;;;;;;;;;;;;22.84;90.11;100691.25;21087849;27;20505;-65
2023/07/28 12:52:02;;;;;;;;;;;;;;;22.63;90.18;100697.47;21103282;28;19924;-66
2023/07/28 13:02:24;;;;;;;;;;;;;;;23.02;88.27;100694.16;21086222;28;20515;-65
2023/07/28 13:12:46;;;;;;;;;;;;;;;23.19;86.31;100700.66;21093019;28;19928;-65
2023/07/28 13:23:10;;;;;;;;;;;;;;;23.27;86.65;100700.88;21095433;28;19933;-65
2023/07/28 13:33:32;;;;;;;;;;;;;;;23.10;88.12;100701.44;21082264;28;19927;-65
2023/07/28 13:43:53;;;;;;;;;;;;;;;23.08;84.46;100696.28;21107113;27;19924;-65
2023/07/28 13:54:22;;;;;;;;;;;;;;;23.47;82.83;100684.19;21101748;27;19946;-64
2023/07/28 14:04:44;;;;;;;;;;;;;;;23.45;82.43;100688.75;21115834;27;20374;-64
2023/07/28 14:15:07;;;;;;;;;;;;;;;23.19;85.06;100698.03;21096802;27;19923;-64
2023/07/28 14:25:28;;;;;;;;;;;;;;;23.21;82.41;100694.28;21094581;27;19931;-64
2023/07/28 14:35:50;;;;;;;;;;;;;;;23.21;84.32;100714.56;21098838;27;20628;-65
2023/07/28 14:46:11;;;;;;;;;;;;;;;23.11;84.99;100709.22;21105405;27;19923;-65
2023/07/28 14:56:33;;;;;;;;;;;;;;;23.09;85.70;100707.69;21093546;27;19984;-66
2023/07/28 15:06:54;;;;;;;;;;;;;;;23.18;87.23;100710.41;21099617;27;19928;-66
2023/07/28 15:17:16;;;;;;;;;;;;;;;23.43;86.95;100709.19;21110800;27;19932;-65
2023/07/28 15:27:37;;;;;;;;;;;;;;;23.19;88.49;100706.78;21091643;27;19923;-66
2023/07/28 15:37:59;;;;;;;;;;;;;;;23.13;88.98;100714.41;21091049;27;20620;-65
2023/07/28 15:48:21;;;;;;;;;;;;;;;23.16;87.01;100700.94;21106324;27;19928;-65
2023/07/28 15:58:44;;;;;;;;;;;;;;;23.25;83.91;100718.63;21095640;27;19969;-65
2023/07/28 16:09:06;;;;;;;;;;;;;;;23.26;86.23;100710.59;21087776;27;19928;-65
2023/07/28 16:19:37;;;;;;;;;;;;;;;23.39;86.13;100721.81;21093654;27;19927;-65
2023/07/28 16:29:58;;;;;;;;;;;;;;;23.83;83.06;100716.19;21091881;27;19938;-65
2023/07/28 16:40:20;;;;;;;;;;;;;;;23.86;84.75;100709.81;21105606;28;20393;-65
2023/07/28 16:50:41;;;;;;;;;;;;;;;23.95;85.17;100707.19;21089378;28;19928;-65
2023/07/28 17:01:03;;;;;;;;;;;;;;;23.79;82.67;100706.00;21089372;28;20540;-65
2023/07/28 17:11:24;;;;;;;;;;;;;;;23.83;85.23;100696.84;21099596;27;19923;-65
2023/07/28 17:21:46;;;;;;;;;;;;;;;23.87;84.84;100708.84;21105890;27;20018;-66
2023/07/28 17:32:10;;;;;;;;;;;;;;;23.65;85.80;100719.59;21097773;27;19977;-65
2023/07/28 17:42:32;;;;;;;;;;;;;;;23.53;84.68;100716.19;21100849;27;20015;-66
2023/07/28 17:52:53;;;;;;;;;;;;;;;23.38;85.61;100727.25;21110436;27;19939;-66
2023/07/28 18:03:15;;;;;;;;;;;;;;;23.30;86.47;100729.69;21116639;27;19931;-65
2023/07/28 18:13:37;;;;;;;;;;;;;;;23.14;86.91;100726.63;21102811;27;19970;-65
2023/07/28 18:23:58;;;;;;;;;;;;;;;23.00;88.14;100722.50;21098734;27;19928;-65
2023/07/28 18:34:21;;;;;;;;;;;;;;;22.87;88.49;100733.22;21098618;27;19934;-65
2023/07/28 18:44:43;;;;;;;;;;;;;;;22.81;88.94;100741.66;21082864;27;20558;-65
2023/07/28 18:55:04;;;;;;;;;;;;;;;22.71;89.06;100746.00;21104851;27;20307;-64
2023/07/28 19:05:26;;;;;;;;;;;;;;;22.62;90.43;100748.56;21096531;27;19923;-65
2023/07/28 19:15:47;;;;;;;;;;;;;;;22.42;93.35;100767.75;21111918;27;20471;-65
2023/07/28 19:26:09;;;;;;;;;;;;;;;22.15;95.00;100775.22;21100983;27;20022;-65
2023/07/28 19:36:30;;;;;;;;;;;;;;;21.85;97.01;100770.53;21084115;27;19924;-65
2023/07/28 19:46:52;;;;;;;;;;;;;;;21.68;97.10;100782.34;21102507;27;19969;-65
2023/07/28 19:57:13;;;;;;;;;;;;;;;21.51;98.28;100774.94;21083114;27;19924;-65
2023/07/28 20:07:35;;;;;;;;;;;;;;;21.27;98.82;100802.25;21097747;27;20307;-65
2023/07/28 20:17:56;;;;;;;;;;;;;;;21.16;98.12;100810.97;21091859;27;19928;-65
2023/07/28 20:28:18;;;;;;;;;;;;;;;21.04;98.81;100813.66;21083017;27;21247;-65
2023/07/28 20:38:39;;;;;;;;;;;;;;;20.87;98.37;100820.97;21086995;27;19923;-65
2023/07/28 20:49:01;;;;;;;;;;;;;;;20.73;99.28;100825.53;21114275;27;19928;-65
2023/07/28 20:59:22;;;;;;;;;;;;;;;20.62;99.56;100813.13;21120861;27;20894;-65
2023/07/28 21:09:44;;;;;;;;;;;;;;;20.58;100.00;100808.22;21112749;27;19932;-64
2023/07/28 21:20:06;;;;;;;;;;;;;;;20.46;100.00;100803.81;21112277;27;19924;-65
2023/07/28 21:30:28;;;;;;;;;;;;;;;20.39;100.00;100792.06;21116008;27;19934;-65
2023/07/28 21:40:50;;;;;;;;;;;;;;;20.32;100.00;100790.84;21106623;27;19928;-65
2023/07/28 21:51:11;;;;;;;;;;;;;;;20.25;100.00;100785.19;21114102;27;19928;-65
2023/07/28 22:01:33;;;;;;;;;;;;;;;20.14;100.00;100787.69;21105215;27;19924;-64
2023/07/28 22:11:54;;;;;;;;;;;;;;;20.14;100.00;100786.84;21113560;27;19945;-64
2023/07/28 22:22:16;;;;;;;;;;;;;;;20.08;98.29;100818.78;21106237;27;19955;-65
2023/07/28 22:32:37;;;;;;;;;;;;;;;19.99;100.00;100809.78;21104435;27;19924;-66
2023/07/28 22:42:59;;;;;;;;;;;;;;;19.93;100.00;100797.06;21106786;27;19993;-67
2023/07/28 22:53:20;;;;;;;;;;;;;;;19.87;100.00;100797.47;21119987;27;20030;-67
2023/07/28 23:03:42;;;;;;;;;;;;;;;19.80;100.00;100794.44;21086182;27;20273;-67
2023/07/28 23:14:03;;;;;;;;;;;;;;;19.80;100.00;100789.19;21080513;27;20419;-67
2023/07/28 23:24:25;;;;;;;;;;;;;;;19.76;100.00;100786.88;21104016;27;19923;-67
2023/07/28 23:34:46;;;;;;;;;;;;;;;19.77;100.00;100789.41;21085604;27;19970;-66
2023/07/28 23:45:08;;;;;;;;;;;;;;;19.78;100.00;100790.22;21102911;27;20268;-67
2023/07/28 23:55:30;;;;;;;;;;;;;;;19.70;100.00;100784.66;21089615;27;19928;-66
